Time;durP1;ratioP1;P1;durP2;ratioP2;P2;SDS_P1;SDS_P2;PMS_P1;PMS_P2;Temp;Humidity;BMP_temperature;BMP_pressure;BME280_temperature;BME280_humidity;BME280_pressure;Samples;Min_cycle;Max_cycle;Signal;HPM_P1;HPM_P2
2023/09/30 00:01:52;;;;;;;73.60;13.40;;;15.80;60.20;;;;;;4980231;28;20188;-78
2023/09/30 00:04:18;;;;;;;73.77;12.53;;;15.80;60.80;;;;;;4963225;28;20490;-78
2023/09/30 00:06:43;;;;;;;75.57;14.60;;;15.80;60.00;;;;;;4980478;28;20403;-78
2023/09/30 00:09:09;;;;;;;73.37;14.87;;;15.80;59.70;;;;;;4963072;28;20491;-78
2023/09/30 00:11:35;;;;;;;72.90;14.60;;;15.80;59.80;;;;;;4980157;28;20215;-78
2023/09/30 00:14:00;;;;;;;75.00;9.57;;;15.80;59.00;;;;;;4963147;28;20172;-78
2023/09/30 00:16:26;;;;;;;73.30;14.13;;;15.80;57.00;;;;;;4981166;28;20661;-78
2023/09/30 00:18:54;;;;;;;77.80;15.40;;;15.70;60.30;;;;;;4980911;28;20243;-78
2023/09/30 00:21:19;;;;;;;73.97;15.63;;;15.70;58.00;;;;;;4962803;28;20168;-78
2023/09/30 00:23:45;;;;;;;77.23;15.23;;;15.60;58.30;;;;;;4979520;28;20824;-78
2023/09/30 00:26:11;;;;;;;75.70;18.13;;;15.60;63.70;;;;;;4979387;28;20169;-78
2023/09/30 00:28:36;;;;;;;75.60;14.80;;;15.60;65.80;;;;;;4980246;28;20168;-78
2023/09/30 00:31:08;;;;;;;76.30;16.17;;;15.60;65.10;;;;;;4979713;28;20202;-78
2023/09/30 00:33:34;;;;;;;72.97;15.17;;;15.50;64.40;;;;;;4979601;28;20156;-78
2023/09/30 00:36:05;;;;;;;72.70;13.23;;;15.50;64.90;;;;;;4979356;28;20501;-78
2023/09/30 00:38:30;;;;;;;78.77;16.63;;;15.60;62.80;;;;;;4979568;28;20229;-78
2023/09/30 00:40:56;;;;;;;73.63;14.83;;;15.50;63.70;;;;;;4979712;28;20408;-78
2023/09/30 00:43:22;;;;;;;73.10;14.93;;;15.50;64.80;;;;;;4979464;28;20184;-78
2023/09/30 00:46:13;;;;;;;73.33;15.70;;;15.50;70.00;;;;;;4979575;28;20176;-78
2023/09/30 00:48:39;;;;;;;72.40;14.10;;;15.50;69.30;;;;;;4966031;28;20219;-78
2023/09/30 00:51:06;;;;;;;77.33;12.40;;;15.40;70.50;;;;;;4979405;28;20403;-78
2023/09/30 00:53:32;;;;;;;73.80;11.30;;;15.40;74.20;;;;;;4980038;28;20461;-78
2023/09/30 00:55:59;;;;;;;75.50;14.60;;;15.50;69.40;;;;;;4978801;28;20455;-78
2023/09/30 00:58:28;;;;;;;77.83;15.47;;;15.50;70.50;;;;;;4978943;28;20929;-78
2023/09/30 01:00:56;;;;;;;72.40;13.73;;;15.40;71.90;;;;;;4979062;28;20439;-78
2023/09/30 01:03:22;;;;;;;73.30;14.93;;;15.40;71.60;;;;;;4978924;28;20427;-78
2023/09/30 01:05:49;;;;;;;75.40;13.80;;;15.40;67.40;;;;;;4979041;28;20609;-78
2023/09/30 01:08:19;;;;;;;75.17;12.83;;;15.40;70.80;;;;;;4980372;28;20408;-78
2023/09/30 01:10:45;;;;;;;75.53;14.60;;;15.30;70.30;;;;;;4978820;28;20474;-78
2023/09/30 01:13:11;;;;;;;76.03;15.03;;;15.30;70.50;;;;;;4979150;28;20427;-78
2023/09/30 01:15:37;;;;;;;75.23;14.20;;;15.30;69.40;;;;;;4978601;28;21060;-78
2023/09/30 01:18:03;;;;;;;75.63;16.13;;;15.30;66.20;;;;;;4978978;28;20692;-78
2023/09/30 01:20:29;;;;;;;75.83;13.43;;;15.30;66.80;;;;;;4979134;28;20179;-77
2023/09/30 01:22:56;;;;;;;71.53;11.00;;;15.30;72.80;;;;;;4978878;28;20423;-78
2023/09/30 01:25:22;;;;;;;76.50;12.53;;;15.20;75.20;;;;;;4978964;28;20557;-78
2023/09/30 01:27:48;;;;;;;75.57;12.67;;;15.30;74.00;;;;;;4978636;28;20600;-78
2023/09/30 01:30:13;;;;;;;77.23;10.70;;;15.30;70.70;;;;;;4978296;28;20171;-78
2023/09/30 01:32:40;;;;;;;74.33;10.70;;;15.20;76.30;;;;;;4979178;28;20251;-78
2023/09/30 01:35:06;;;;;;;73.80;11.40;;;15.30;77.60;;;;;;4978988;28;20541;-78
2023/09/30 01:37:32;;;;;;;75.40;10.40;;;15.20;77.00;;;;;;4961049;28;20412;-78
2023/09/30 01:39:57;;;;;;;71.10;10.20;;;15.20;79.20;;;;;;4977928;28;20400;-78
2023/09/30 01:42:23;;;;;;;74.30;11.43;;;15.20;80.60;;;;;;4978386;28;20669;-77
2023/09/30 01:44:49;;;;;;;72.20;10.30;;;15.20;77.50;;;;;;4960891;28;20242;-78
2023/09/30 01:47:14;;;;;;;73.80;11.20;;;15.20;79.50;;;;;;4978386;28;20511;-78
2023/09/30 01:49:40;;;;;;;74.10;9.40;;;15.10;80.10;;;;;;4978558;28;20174;-78
2023/09/30 01:52:06;;;;;;;73.67;10.17;;;15.10;84.10;;;;;;4978201;28;20191;-78
2023/09/30 01:54:31;;;;;;;71.73;9.90;;;15.10;83.00;;;;;;4977732;28;20191;-78
2023/09/30 01:56:58;;;;;;;71.57;9.50;;;15.10;89.10;;;;;;4978318;28;20239;-78
2023/09/30 01:59:24;;;;;;;72.33;9.10;;;15.10;88.00;;;;;;4978941;28;20234;-78
2023/09/30 02:01:50;;;;;;;81.30;10.40;;;15.10;85.40;;;;;;4977351;28;20455;-78
2023/09/30 02:04:17;;;;;;;76.00;9.80;;;15.10;85.10;;;;;;4977747;28;20502;-78
2023/09/30 02:06:43;;;;;;;73.27;9.97;;;15.00;86.70;;;;;;4977880;28;20227;-77
2023/09/30 02:09:09;;;;;;;74.73;10.20;;;15.10;86.90;;;;;;4976815;28;20435;-78
2023/09/30 02:11:35;;;;;;;73.57;11.80;;;15.10;82.60;;;;;;4960241;28;20478;-78
2023/09/30 02:14:05;;;;;;;74.07;10.53;;;15.00;83.60;;;;;;4977502;28;20404;-78
2023/09/30 02:16:31;;;;;;;76.20;11.13;;;15.00;82.50;;;;;;4978239;28;20446;-78
2023/09/30 02:18:59;;;;;;;74.70;10.73;;;15.00;82.50;;;;;;4959883;28;20407;-78
2023/09/30 02:21:24;;;;;;;74.20;9.67;;;15.00;82.40;;;;;;4960041;28;20411;-78
2023/09/30 02:23:54;;;;;;;72.73;11.10;;;14.90;82.70;;;;;;4977154;28;20476;-77
2023/09/30 02:26:21;;;;;;;73.13;10.20;;;14.90;86.80;;;;;;4977586;28;20156;-78
2023/09/30 02:28:47;;;;;;;73.20;9.60;;;14.80;87.10;;;;;;4976977;28;20422;-77
2023/09/30 02:31:12;;;;;;;74.87;11.20;;;14.90;88.10;;;;;;4977267;28;20901;-77
2023/09/30 02:33:39;;;;;;;74.70;10.53;;;14.90;87.60;;;;;;4977462;28;20542;-78
2023/09/30 02:36:08;;;;;;;73.70;10.43;;;14.80;86.50;;;;;;4977080;28;20188;-78
2023/09/30 02:38:37;;;;;;;75.87;10.87;;;14.80;89.00;;;;;;4976870;28;20439;-78
2023/09/30 02:41:03;;;;;;;77.70;11.53;;;14.80;90.00;;;;;;4976709;28;20408;-78
2023/09/30 02:43:29;;;;;;;74.27;11.63;;;14.80;88.60;;;;;;4976580;28;20511;-78
2023/09/30 02:45:55;;;;;;;70.87;10.23;;;14.80;87.00;;;;;;4959674;28;20447;-78
2023/09/30 02:48:20;;;;;;;72.97;10.90;;;14.70;88.40;;;;;;4976958;28;20403;-78
2023/09/30 02:50:46;;;;;;;76.80;9.70;;;14.70;88.40;;;;;;4976799;28;20173;-77
2023/09/30 02:53:13;;;;;;;71.00;9.70;;;14.70;84.00;;;;;;4977669;28;20199;-78
2023/09/30 02:55:39;;;;;;;75.47;11.40;;;14.70;85.80;;;;;;4976750;28;20695;-78
2023/09/30 02:58:05;;;;;;;72.37;10.50;;;14.60;86.60;;;;;;4976738;28;20997;-78
2023/09/30 03:00:32;;;;;;;72.23;11.60;;;14.60;87.90;;;;;;4977292;28;20411;-78
2023/09/30 03:03:01;;;;;;;73.00;10.20;;;14.60;84.70;;;;;;4976552;28;20413;-77
2023/09/30 03:05:27;;;;;;;74.93;12.37;;;14.60;84.90;;;;;;4976900;28;20410;-77
2023/09/30 03:07:55;;;;;;;76.73;12.23;;;14.60;84.60;;;;;;4976128;28;20411;-77
2023/09/30 03:10:23;;;;;;;76.03;12.40;;;14.50;84.90;;;;;;4976756;28;20407;-77
2023/09/30 03:12:49;;;;;;;75.07;9.87;;;14.50;86.30;;;;;;4976621;28;20800;-77
2023/09/30 03:15:16;;;;;;;72.70;10.40;;;14.50;87.50;;;;;;4976329;28;20477;-78
2023/09/30 03:17:42;;;;;;;72.70;9.97;;;14.50;86.90;;;;;;4976217;28;20454;-78
2023/09/30 03:20:11;;;;;;;71.37;8.90;;;14.40;89.10;;;;;;4961346;28;20403;-78
2023/09/30 03:22:49;;;;;;;76.33;10.27;;;14.40;91.10;;;;;;4980240;28;20435;-77
2023/09/30 03:25:17;;;;;;;72.40;10.33;;;14.50;88.90;;;;;;4980112;28;20455;-77
2023/09/30 03:27:47;;;;;;;75.90;10.83;;;14.50;85.20;;;;;;4962828;28;20422;-77
2023/09/30 03:30:15;;;;;;;73.77;10.40;;;14.40;86.30;;;;;;4979764;28;20403;-78
2023/09/30 03:32:41;;;;;;;72.70;11.77;;;14.40;83.40;;;;;;4979823;28;20797;-77
2023/09/30 03:35:16;;;;;;;72.97;11.33;;;14.40;81.70;;;;;;4979577;28;20455;-78
2023/09/30 03:37:44;;;;;;;73.77;11.97;;;14.40;81.60;;;;;;4962085;28;20939;-77
2023/09/30 03:40:19;;;;;;;74.97;11.80;;;14.40;79.40;;;;;;4962170;28;20411;-78
2023/09/30 03:42:49;;;;;;;73.07;9.90;;;14.40;76.90;;;;;;4979749;28;20790;-78
2023/09/30 03:45:14;;;;;;;73.80;11.17;;;14.30;77.60;;;;;;4979351;28;20414;-77
2023/09/30 03:47:41;;;;;;;72.97;11.87;;;14.30;82.60;;;;;;4979488;28;20403;-77
2023/09/30 03:50:14;;;;;;;74.83;13.57;;;14.20;77.50;;;;;;4979423;28;20414;-77
2023/09/30 03:52:44;;;;;;;74.70;10.73;;;14.20;79.10;;;;;;4979302;28;20427;-77
2023/09/30 03:55:15;;;;;;;79.07;13.23;;;14.10;80.80;;;;;;4961997;28;20466;-77
2023/09/30 03:57:41;;;;;;;74.17;11.47;;;14.10;83.90;;;;;;4980019;28;20469;-77
2023/09/30 04:00:11;;;;;;;73.40;11.23;;;14.10;80.00;;;;;;4980048;28;20403;-78
2023/09/30 04:02:37;;;;;;;74.70;12.70;;;14.10;79.90;;;;;;4961960;28;20441;-78
2023/09/30 04:05:06;;;;;;;73.10;12.37;;;14.00;77.30;;;;;;4962639;28;20403;-78
2023/09/30 04:07:32;;;;;;;75.00;12.40;;;14.00;81.10;;;;;;4962151;28;20176;-78
2023/09/30 04:10:01;;;;;;;75.90;10.60;;;14.00;78.40;;;;;;4962505;28;20610;-78
2023/09/30 04:12:26;;;;;;;73.20;13.30;;;14.00;74.60;;;;;;4960378;28;20467;-77
2023/09/30 04:14:52;;;;;;;74.13;12.47;;;13.90;77.10;;;;;;4979220;28;20979;-77
2023/09/30 04:17:18;;;;;;;74.13;11.30;;;13.90;75.20;;;;;;4979567;28;20256;-78
2023/09/30 04:19:45;;;;;;;74.67;12.40;;;13.90;76.80;;;;;;4962009;28;20407;-78
2023/09/30 04:22:11;;;;;;;75.63;13.10;;;13.80;79.40;;;;;;4979344;28;20179;-77
2023/09/30 04:24:37;;;;;;;75.67;12.97;;;13.90;79.40;;;;;;4978662;28;20506;-77
2023/09/30 04:27:04;;;;;;;75.07;14.47;;;13.80;76.90;;;;;;4979284;28;20167;-77
2023/09/30 04:29:30;;;;;;;76.40;13.03;;;13.80;78.10;;;;;;4979309;28;20421;-78
2023/09/30 04:31:57;;;;;;;75.20;14.83;;;13.80;78.10;;;;;;4960285;28;20463;-78
2023/09/30 04:34:22;;;;;;;76.43;13.17;;;13.80;77.00;;;;;;4978359;28;20250;-77
2023/09/30 04:36:48;;;;;;;75.37;13.60;;;13.80;77.60;;;;;;4961645;28;20435;-77
2023/09/30 04:39:15;;;;;;;73.00;11.97;;;13.80;76.90;;;;;;4979003;28;20215;-77
2023/09/30 04:41:41;;;;;;;75.90;14.17;;;13.80;74.70;;;;;;4978814;28;20186;-78
2023/09/30 04:44:09;;;;;;;74.60;14.90;;;13.70;77.20;;;;;;4979116;28;20585;-78
2023/09/30 04:46:45;;;;;;;74.10;14.13;;;13.70;82.30;;;;;;4978504;28;20459;-77
2023/09/30 04:49:14;;;;;;;77.83;14.17;;;13.70;83.20;;;;;;4961166;28;20422;-78
2023/09/30 04:51:40;;;;;;;78.80;13.50;;;13.70;83.00;;;;;;4961229;28;20427;-78
2023/09/30 04:54:08;;;;;;;78.00;13.87;;;13.70;83.70;;;;;;4978194;28;20416;-77
2023/09/30 04:56:38;;;;;;;80.60;15.17;;;13.60;86.50;;;;;;4961183;28;20191;-77
2023/09/30 04:59:04;;;;;;;77.60;15.20;;;13.60;89.50;;;;;;4960449;28;20454;-78
2023/09/30 05:01:30;;;;;;;74.57;15.23;;;13.60;84.50;;;;;;4961021;28;20435;-78
2023/09/30 05:03:55;;;;;;;76.70;16.10;;;13.60;86.60;;;;;;4978004;28;20526;-77
2023/09/30 05:06:21;;;;;;;76.47;16.20;;;13.50;86.10;;;;;;4977908;28;20164;-78
2023/09/30 05:08:47;;;;;;;75.67;15.70;;;13.60;89.90;;;;;;4977931;28;20168;-77
2023/09/30 05:11:14;;;;;;;73.37;12.13;;;13.60;85.30;;;;;;4978086;28;20433;-78
2023/09/30 05:13:39;;;;;;;73.87;14.37;;;13.60;81.10;;;;;;4960375;28;20439;-77
2023/09/30 05:16:07;;;;;;;76.67;17.43;;;13.60;78.70;;;;;;4978173;28;20482;-77
2023/09/30 05:18:33;;;;;;;71.67;12.27;;;13.50;83.60;;;;;;4977618;28;20251;-78
2023/09/30 05:20:58;;;;;;;75.27;14.87;;;13.50;86.80;;;;;;4978202;28;20434;-77
2023/09/30 05:23:25;;;;;;;74.77;16.43;;;13.50;85.10;;;;;;4978392;28;20426;-78
2023/09/30 05:25:51;;;;;;;75.77;15.00;;;13.50;86.40;;;;;;4960662;28;20218;-77
2023/09/30 05:28:16;;;;;;;73.70;15.83;;;13.50;83.90;;;;;;4977645;28;20427;-77
2023/09/30 05:30:43;;;;;;;76.40;17.30;;;13.50;82.30;;;;;;4977911;28;20696;-78
2023/09/30 05:33:14;;;;;;;76.70;18.23;;;13.40;81.20;;;;;;4977845;28;20199;-77
2023/09/30 05:35:40;;;;;;;79.13;16.57;;;13.40;84.20;;;;;;4977841;28;21017;-77
2023/09/30 05:38:07;;;;;;;76.00;15.27;;;13.40;88.10;;;;;;4977431;28;20799;-77
2023/09/30 05:40:33;;;;;;;78.07;15.60;;;13.40;89.10;;;;;;4977229;28;20407;-78
2023/09/30 05:42:59;;;;;;;85.23;16.13;;;13.40;89.20;;;;;;4977379;28;20415;-78
2023/09/30 05:45:27;;;;;;;74.03;14.40;;;13.40;91.50;;;;;;4978101;28;20164;-77
2023/09/30 05:47:54;;;;;;;77.23;14.83;;;13.40;93.30;;;;;;4977202;28;20411;-77
2023/09/30 05:50:24;;;;;;;74.90;15.50;;;13.30;96.10;;;;;;4959754;28;20411;-77
2023/09/30 05:52:54;;;;;;;76.70;16.00;;;13.40;97.10;;;;;;4977197;28;20427;-77
2023/09/30 05:55:20;;;;;;;81.47;16.00;;;13.40;96.90;;;;;;4976954;28;20463;-77
2023/09/30 05:57:52;;;;;;;75.13;15.20;;;13.40;97.30;;;;;;4960005;28;20442;-77
2023/09/30 06:00:30;;;;;;;74.87;18.07;;;13.50;97.90;;;;;;4960102;28;20441;-77
2023/09/30 06:02:59;;;;;;;74.67;15.83;;;13.50;97.50;;;;;;4977540;28;20477;-77
2023/09/30 06:05:30;;;;;;;81.43;16.07;;;13.50;98.20;;;;;;4976924;28;20407;-77
2023/09/30 06:07:56;;;;;;;80.03;16.87;;;13.50;98.50;;;;;;4944382;28;20431;-77
2023/09/30 06:10:22;;;;;;;76.73;16.73;;;13.50;99.60;;;;;;4959082;28;20885;-78
2023/09/30 06:12:54;;;;;;;74.90;16.90;;;13.60;99.40;;;;;;4976272;28;20434;-77
2023/09/30 06:15:21;;;;;;;79.30;17.13;;;13.60;99.30;;;;;;4976514;28;20435;-77
2023/09/30 06:17:49;;;;;;;76.20;18.50;;;13.60;99.90;;;;;;4976628;28;20410;-77
2023/09/30 06:20:17;;;;;;;77.27;18.63;;;13.60;99.90;;;;;;4976225;28;20399;-77
2023/09/30 06:22:49;;;;;;;78.40;18.53;;;13.70;99.90;;;;;;4958964;28;20462;-78
2023/09/30 06:25:16;;;;;;;77.50;17.70;;;13.70;99.90;;;;;;4958761;28;20443;-77
2023/09/30 06:27:43;;;;;;;74.40;17.57;;;13.70;99.90;;;;;;4976381;28;20434;-77
2023/09/30 06:30:09;;;;;;;77.97;17.30;;;13.70;99.90;;;;;;4976415;28;20502;-77
2023/09/30 06:32:35;;;;;;;77.17;19.63;;;13.70;99.90;;;;;;4976728;28;20434;-77
2023/09/30 06:35:03;;;;;;;77.30;19.30;;;13.70;99.90;;;;;;4958804;28;20545;-77
2023/09/30 06:37:29;;;;;;;83.30;20.80;;;13.70;99.90;;;;;;4958852;28;20179;-77
2023/09/30 06:39:55;;;;;;;82.00;22.40;;;13.60;99.90;;;;;;4975374;28;20403;-77
2023/09/30 06:42:22;;;;;;;81.97;25.93;;;13.60;99.90;;;;;;4975344;28;20550;-77
2023/09/30 06:44:47;;;;;;;78.93;27.20;;;13.60;99.90;;;;;;4975827;28;20380;-77
2023/09/30 06:47:13;;;;;;;81.57;28.83;;;13.60;99.90;;;;;;4956915;28;20423;-77
2023/09/30 06:49:39;;;;;;;79.47;28.13;;;13.60;99.90;;;;;;4974642;28;20641;-77
2023/09/30 06:52:05;;;;;;;84.80;30.27;;;13.70;99.90;;;;;;4974717;28;20804;-77
2023/09/30 06:54:31;;;;;;;81.13;29.77;;;13.70;99.90;;;;;;4976041;28;20443;-77
2023/09/30 06:56:57;;;;;;;88.07;33.70;;;13.80;99.90;;;;;;4978586;28;20438;-77
2023/09/30 06:59:24;;;;;;;87.77;34.77;;;13.80;99.90;;;;;;4979519;28;20403;-77
2023/09/30 07:01:51;;;;;;;87.90;36.17;;;13.90;99.90;;;;;;4979746;28;20184;-77
2023/09/30 07:04:17;;;;;;;90.50;39.63;;;13.80;99.90;;;;;;4979737;28;20427;-77
2023/09/30 07:06:43;;;;;;;91.10;35.13;;;13.90;99.90;;;;;;4961569;28;20457;-77
2023/09/30 07:09:10;;;;;;;84.13;35.57;;;13.90;99.90;;;;;;4961484;28;20477;-77
2023/09/30 07:11:36;;;;;;;87.63;38.63;;;13.90;99.90;;;;;;4978870;28;20427;-77
2023/09/30 07:14:02;;;;;;;86.37;41.80;;;13.90;99.90;;;;;;4978710;28;20443;-77
2023/09/30 07:16:28;;;;;;;87.10;40.27;;;14.00;99.90;;;;;;4978878;28;21006;-77
2023/09/30 07:18:53;;;;;;;87.60;42.70;;;14.00;99.90;;;;;;4978493;28;20407;-77
2023/09/30 07:21:19;;;;;;;86.57;45.17;;;14.10;99.90;;;;;;4978133;28;20168;-77
2023/09/30 07:23:45;;;;;;;96.00;51.77;;;14.10;99.90;;;;;;4960838;28;20438;-77
2023/09/30 07:26:11;;;;;;;91.00;46.23;;;14.10;99.90;;;;;;4978511;28;20219;-77
2023/09/30 07:28:37;;;;;;;91.20;51.33;;;14.20;99.90;;;;;;4978357;28;20540;-77
2023/09/30 07:31:02;;;;;;;90.00;48.53;;;14.20;99.90;;;;;;4978277;28;20641;-77
2023/09/30 07:33:29;;;;;;;94.63;54.20;;;14.20;99.90;;;;;;4977959;28;20463;-77
2023/09/30 07:35:55;;;;;;;93.57;56.30;;;14.20;99.90;;;;;;4978483;28;20206;-77
2023/09/30 07:38:22;;;;;;;95.73;59.80;;;14.20;99.90;;;;;;4960983;28;20411;-77
2023/09/30 07:40:48;;;;;;;96.87;69.20;;;14.20;99.90;;;;;;4978432;28;20987;-77
2023/09/30 07:43:14;;;;;;;95.20;60.20;;;14.20;99.90;;;;;;4978160;28;20458;-77
2023/09/30 07:45:40;;;;;;;94.03;61.07;;;14.30;99.90;;;;;;4978152;28;20431;-77
2023/09/30 07:48:09;;;;;;;94.43;54.50;;;14.30;99.90;;;;;;4978860;28;20769;-77
2023/09/30 07:50:39;;;;;;;98.50;66.40;;;14.30;99.90;;;;;;4978291;28;20163;-77
2023/09/30 07:53:04;;;;;;;99.77;64.63;;;14.40;99.90;;;;;;4978116;28;20419;-77
2023/09/30 07:55:30;;;;;;;99.00;73.13;;;14.40;99.90;;;;;;4978068;28;20453;-77
2023/09/30 07:57:59;;;;;;;97.77;67.87;;;14.40;99.90;;;;;;4977578;28;20168;-77
2023/09/30 08:00:24;;;;;;;98.30;69.83;;;14.40;99.90;;;;;;4977551;28;20156;-77
2023/09/30 08:02:51;;;;;;;106.00;79.03;;;14.50;99.90;;;;;;4960470;28;20466;-77
2023/09/30 08:05:16;;;;;;;97.97;70.60;;;14.50;99.90;;;;;;4978028;28;20223;-77
2023/09/30 08:07:42;;;;;;;99.27;71.80;;;14.50;99.90;;;;;;4960490;28;20408;-77
2023/09/30 08:10:13;;;;;;;103.53;73.27;;;14.50;99.90;;;;;;4961572;28;20175;-78
2023/09/30 08:12:39;;;;;;;102.10;81.03;;;14.50;99.90;;;;;;4979515;28;20191;-77
2023/09/30 08:15:06;;;;;;;104.17;81.17;;;14.60;99.90;;;;;;4978724;28;20451;-77
2023/09/30 08:17:32;;;;;;;98.60;77.73;;;14.60;99.90;;;;;;4960632;28;20411;-78
2023/09/30 08:19:58;;;;;;;101.97;82.80;;;14.70;99.90;;;;;;4960896;28;20419;-78
2023/09/30 08:22:27;;;;;;;106.87;84.13;;;14.70;99.90;;;;;;4978183;28;20423;-77
2023/09/30 08:24:53;;;;;;;99.67;73.97;;;14.70;99.90;;;;;;4977527;28;20809;-77
2023/09/30 08:27:19;;;;;;;108.73;82.57;;;14.70;99.90;;;;;;4977836;28;20452;-78
2023/09/30 08:29:46;;;;;;;106.60;92.97;;;14.80;99.90;;;;;;4960123;28;20913;-77
2023/09/30 08:32:11;;;;;;;108.73;89.60;;;14.80;99.90;;;;;;4960956;28;20435;-78
2023/09/30 08:34:37;;;;;;;108.23;93.63;;;14.80;99.90;;;;;;4978163;28;20399;-78
2023/09/30 08:37:03;;;;;;;106.53;87.03;;;14.90;99.90;;;;;;4979094;28;20192;-78
2023/09/30 08:39:29;;;;;;;114.90;87.30;;;14.90;99.90;;;;;;4978182;28;20171;-78
2023/09/30 08:41:56;;;;;;;106.90;88.77;;;15.00;99.90;;;;;;4977856;28;20419;-77
2023/09/30 08:44:22;;;;;;;106.53;94.63;;;15.00;99.90;;;;;;4960629;28;20223;-77
2023/09/30 08:46:49;;;;;;;110.10;89.80;;;15.10;99.90;;;;;;4978295;28;20392;-78
2023/09/30 08:49:15;;;;;;;105.23;92.60;;;15.20;99.90;;;;;;4960479;28;20252;-78
2023/09/30 08:51:41;;;;;;;104.97;77.97;;;15.20;99.90;;;;;;4978084;28;20510;-78
2023/09/30 08:54:07;;;;;;;110.70;98.60;;;15.20;99.90;;;;;;4961000;28;20439;-78
2023/09/30 08:56:33;;;;;;;110.70;97.50;;;15.30;99.90;;;;;;4978959;28;20451;-78
2023/09/30 08:59:02;;;;;;;112.03;100.07;;;15.30;99.90;;;;;;4978010;28;20172;-78
2023/09/30 09:01:29;;;;;;;105.83;85.00;;;15.30;99.90;;;;;;4977840;28;20419;-78
2023/09/30 09:03:55;;;;;;;111.77;94.87;;;15.40;99.90;;;;;;4960682;28;20462;-78
2023/09/30 09:06:22;;;;;;;108.90;89.77;;;15.50;99.90;;;;;;4977807;28;20414;-78
2023/09/30 09:08:48;;;;;;;107.70;80.83;;;15.60;99.90;;;;;;4977568;28;20494;-77
2023/09/30 09:11:14;;;;;;;102.37;79.43;;;15.50;99.90;;;;;;4978263;28;20446;-77
2023/09/30 09:13:55;;;;;;;106.50;73.53;;;15.60;99.90;;;;;;4977508;28;20477;-77
2023/09/30 09:16:22;;;;;;;104.03;83.53;;;15.60;99.90;;;;;;4977488;28;20469;-78
2023/09/30 09:18:49;;;;;;;108.50;84.33;;;15.70;99.90;;;;;;4977179;28;20404;-78
2023/09/30 09:21:17;;;;;;;101.73;70.73;;;15.70;99.90;;;;;;4960198;28;20474;-77
2023/09/30 09:23:49;;;;;;;94.93;53.67;;;15.80;99.90;;;;;;4959336;28;20416;-77
2023/09/30 09:26:27;;;;;;;91.20;41.93;;;16.00;99.90;;;;;;4977228;28;20446;-78
2023/09/30 09:29:04;;;;;;;100.73;55.43;;;16.20;99.90;;;;;;4960041;28;20415;-78
2023/09/30 09:31:34;;;;;;;91.53;51.50;;;16.20;99.90;;;;;;4960548;28;20474;-77
2023/09/30 09:34:02;;;;;;;94.10;44.10;;;16.20;99.90;;;;;;4977505;28;20399;-78
2023/09/30 09:36:43;;;;;;;92.43;45.20;;;16.30;99.90;;;;;;4959755;28;20895;-78
2023/09/30 09:39:12;;;;;;;93.67;43.00;;;16.30;99.90;;;;;;4976171;28;20415;-78
2023/09/30 09:41:52;;;;;;;89.37;38.13;;;16.40;99.90;;;;;;4977324;28;20427;-77
2023/09/30 09:44:22;;;;;;;84.47;24.43;;;16.40;99.90;;;;;;4977019;28;20507;-78
2023/09/30 09:46:52;;;;;;;92.27;25.20;;;16.70;99.90;;;;;;4976229;28;20422;-78
2023/09/30 09:49:19;;;;;;;85.27;29.17;;;16.70;99.90;;;;;;4976810;28;20415;-78
2023/09/30 09:51:49;;;;;;;90.40;38.07;;;16.70;99.90;;;;;;4976923;28;20427;-78
2023/09/30 09:54:15;;;;;;;90.57;39.63;;;17.00;99.90;;;;;;4976860;28;20403;-78
2023/09/30 09:56:45;;;;;;;95.47;40.93;;;17.10;99.90;;;;;;4976176;28;20959;-78
2023/09/30 09:59:14;;;;;;;90.73;29.73;;;17.30;99.90;;;;;;4975783;28;20406;-77
2023/09/30 10:01:41;;;;;;;81.07;15.40;;;17.60;99.90;;;;;;4977418;28;20430;-78
2023/09/30 10:04:07;;;;;;;78.37;13.70;;;17.70;95.60;;;;;;4977530;28;20434;-78
2023/09/30 10:06:39;;;;;;;82.50;14.40;;;17.90;99.90;;;;;;4976739;28;20415;-77
2023/09/30 10:09:10;;;;;;;79.70;17.50;;;18.10;86.60;;;;;;4975764;28;20391;-78
2023/09/30 10:11:37;;;;;;;84.00;12.47;;;18.30;86.90;;;;;;4977881;28;20797;-77
2023/09/30 10:14:12;;;;;;;80.63;14.90;;;18.30;61.10;;;;;;4978346;28;20434;-78
2023/09/30 10:16:37;;;;;;;82.83;14.70;;;18.30;59.00;;;;;;4978791;28;20443;-78
2023/09/30 10:19:15;;;;;;;80.50;15.43;;;18.30;62.10;;;;;;4978008;28;20414;-78
2023/09/30 10:22:16;;;;;;;78.20;14.17;;;18.10;56.10;;;;;;4960366;28;20198;-77
2023/09/30 10:24:42;;;;;;;77.80;8.90;;;18.10;65.40;;;;;;4978592;28;20499;-78
2023/09/30 10:27:28;;;;;;;80.70;9.07;;;18.30;50.60;;;;;;4978734;28;20410;-78
2023/09/30 10:30:14;;;;;;;77.73;10.10;;;18.40;41.40;;;;;;4977096;28;20398;-78
2023/09/30 10:32:52;;;;;;;75.30;9.50;;;18.20;43.10;;;;;;4961703;28;20435;-78
2023/09/30 10:35:27;;;;;;;74.67;10.17;;;17.90;36.80;;;;;;4959948;28;20463;-78
2023/09/30 10:38:22;;;;;;;73.90;6.93;;;17.90;56.70;;;;;;4976480;28;20912;-78
2023/09/30 10:40:48;;;;;;;75.10;7.20;;;17.80;45.40;;;;;;4975035;28;20402;-78
2023/09/30 10:43:34;;;;;;;78.77;8.53;;;18.10;48.60;;;;;;4976222;28;20446;-78
2023/09/30 10:46:00;;;;;;;77.87;8.90;;;18.40;13.70;;;;;;4978888;28;20407;-78
2023/09/30 10:48:30;;;;;;;74.33;8.93;;;18.50;16.50;;;;;;4977721;28;20403;-78
2023/09/30 10:51:01;;;;;;;77.90;12.93;;;18.80;7.80;;;;;;4979240;28;20431;-78
2023/09/30 10:53:28;;;;;;;75.10;10.90;;;19.20;1.00;;;;;;4959031;28;20430;-78
2023/09/30 10:55:58;;;;;;;75.97;9.50;;;19.30;1.00;;;;;;4978437;28;20976;-78
2023/09/30 10:58:43;;;;;;;78.33;10.20;;;19.30;1.00;;;;;;4978146;28;20458;-78
2023/09/30 11:01:09;;;;;;;80.47;11.77;;;19.00;1.00;;;;;;4977919;28;20467;-78
2023/09/30 11:03:36;;;;;;;75.20;7.60;;;18.90;1.00;;;;;;4977818;28;20458;-78
2023/09/30 11:06:03;;;;;;;74.27;6.90;;;19.00;1.00;;;;;;4976607;28;20817;-78
2023/09/30 11:08:29;;;;;;;75.10;7.33;;;18.90;1.00;;;;;;4976086;28;20407;-78
2023/09/30 11:10:56;;;;;;;74.10;7.50;;;18.80;1.00;;;;;;4959396;28;20821;-78
2023/09/30 11:13:22;;;;;;;73.13;7.27;;;18.70;1.00;;;;;;4977125;28;21011;-78
2023/09/30 11:15:58;;;;;;;75.07;6.70;;;18.60;1.00;;;;;;4976890;28;20470;-78
2023/09/30 11:18:24;;;;;;;71.07;5.13;;;18.80;1.00;;;;;;4977521;28;20385;-78
2023/09/30 11:20:50;;;;;;;72.47;5.07;;;19.00;1.00;;;;;;4977120;28;20411;-79
2023/09/30 11:23:16;;;;;;;73.53;5.10;;;19.20;1.00;;;;;;4977634;28;20188;-78
2023/09/30 11:25:42;;;;;;;73.57;4.87;;;19.10;1.00;;;;;;4960394;28;20547;-78
2023/09/30 11:28:18;;;;;;;70.40;4.33;;;19.00;1.00;;;;;;4977464;28;20168;-78
2023/09/30 11:30:58;;;;;;;75.97;5.23;;;18.90;1.00;;;;;;4975040;28;20294;-78
2023/09/30 11:33:25;;;;;;;70.90;5.07;;;18.70;1.00;;;;;;4960454;28;20431;-78
2023/09/30 11:36:05;;;;;;;73.30;5.20;;;18.80;1.00;;;;;;4977327;28;20449;-78
2023/09/30 11:38:32;;;;;;;73.10;4.63;;;19.10;1.00;;;;;;4977662;28;20411;-78
2023/09/30 11:41:06;;;;;;;70.23;4.10;;;19.20;1.00;;;;;;4979968;28;20447;-78
2023/09/30 11:43:34;;;;;;;75.37;4.33;;;19.30;1.00;;;;;;4982378;28;20418;-78
2023/09/30 11:46:10;;;;;;;71.50;4.03;;;19.50;1.00;;;;;;4982228;28;20407;-78
2023/09/30 11:48:55;;;;;;;74.97;4.80;;;19.70;1.00;;;;;;4981460;28;20394;-78
2023/09/30 11:51:24;;;;;;;71.67;5.00;;;20.00;1.00;;;;;;4980836;28;20399;-78
2023/09/30 11:53:50;;;;;;;76.50;5.50;;;20.50;1.00;;;;;;4963294;28;20451;-78
2023/09/30 11:56:16;;;;;;;71.80;5.30;;;20.90;1.00;;;;;;4980652;28;20490;-78
2023/09/30 11:58:42;;;;;;;70.93;4.57;;;21.20;1.00;;;;;;4981117;28;20399;-78
2023/09/30 12:01:11;;;;;;;70.67;4.83;;;21.40;1.00;;;;;;4980511;28;20171;-78
2023/09/30 12:03:39;;;;;;;73.57;6.60;;;21.40;1.00;;;;;;4980651;28;20183;-78
2023/09/30 12:06:05;;;;;;;72.07;5.70;;;21.30;1.00;;;;;;4980741;28;20425;-78
2023/09/30 12:08:32;;;;;;;71.07;6.13;;;21.00;1.00;;;;;;4963643;28;20809;-78
2023/09/30 12:10:59;;;;;;;70.77;5.80;;;20.70;1.00;;;;;;4981009;28;20403;-78
2023/09/30 12:13:26;;;;;;;70.67;4.50;;;20.40;1.00;;;;;;4979948;28;20501;-78
2023/09/30 12:15:52;;;;;;;72.57;5.57;;;20.10;1.00;;;;;;4980842;28;20824;-78
2023/09/30 12:18:23;;;;;;;72.47;7.23;;;19.90;1.00;;;;;;4980931;28;20768;-78
2023/09/30 12:20:51;;;;;;;70.03;4.20;;;19.70;1.00;;;;;;4982138;28;20387;-78
2023/09/30 12:23:20;;;;;;;69.43;3.87;;;19.60;1.00;;;;;;4963836;28;20443;-78
2023/09/30 12:25:47;;;;;;;74.40;5.23;;;19.50;1.00;;;;;;4964505;28;20439;-78
2023/09/30 12:28:15;;;;;;;70.07;5.30;;;19.60;1.00;;;;;;4982212;28;20453;-78
2023/09/30 12:30:41;;;;;;;72.60;6.73;;;19.60;1.00;;;;;;4965488;28;20829;-78
2023/09/30 12:33:07;;;;;;;73.80;6.50;;;19.50;1.00;;;;;;4982087;28;20430;-78